createdAt,value
2023-02-22T00:01:50.850Z,7.50
2023-02-22T00:11:50.443Z,7.50
2023-02-22T00:21:49.488Z,7.70
2023-02-22T00:31:48.695Z,7.70
2023-02-22T00:41:47.407Z,7.70
2023-02-22T00:51:46.712Z,7.80
2023-02-22T01:01:46.249Z,7.90
2023-02-22T01:11:45.430Z,7.60
2023-02-22T01:21:44.784Z,7.50
2023-02-22T01:31:43.942Z,7.50
2023-02-22T01:41:43.494Z,7.50
2023-02-22T01:51:43.650Z,7.40
2023-02-22T02:01:44.187Z,7.30
2023-02-22T02:11:43.499Z,7.30
2023-02-22T02:21:43.445Z,7.10
2023-02-22T02:31:42.782Z,6.90
2023-02-22T02:41:41.454Z,6.80
2023-02-22T02:51:40.506Z,6.70
2023-02-22T03:01:39.574Z,6.60
2023-02-22T03:11:38.722Z,6.40
2023-02-22T03:21:38.649Z,6.40
2023-02-22T03:31:37.951Z,6.40
2023-02-22T03:41:38.572Z,6.30
2023-02-22T03:51:39.663Z,6.30
2023-02-22T04:01:39.058Z,6.30
2023-02-22T04:11:38.727Z,6.30
2023-02-22T04:21:38.062Z,6.20
2023-02-22T04:31:38.134Z,6.10
2023-02-22T04:41:37.714Z,5.90
2023-02-22T04:51:38.707Z,5.80
2023-02-22T05:01:38.166Z,5.80
2023-02-22T05:11:37.612Z,5.90
2023-02-22T05:21:36.679Z,5.70
2023-02-22T05:31:35.710Z,5.50
2023-02-22T05:41:34.578Z,5.40
2023-02-22T05:51:33.600Z,5.30
2023-02-22T06:01:32.648Z,5.30
2023-02-22T06:11:31.590Z,5.40
2023-02-22T06:21:30.538Z,5.60
2023-02-22T06:31:31.522Z,5.70
2023-02-22T06:41:30.890Z,5.80
2023-02-22T06:51:29.747Z,5.80
2023-02-22T07:01:28.671Z,5.70
2023-02-22T07:11:27.602Z,5.80
2023-02-22T07:21:26.647Z,6.00
2023-02-22T07:31:25.594Z,6.30
2023-02-22T07:41:24.655Z,6.80
2023-02-22T07:51:23.573Z,7.20
2023-02-22T08:01:22.935Z,7.80
2023-02-22T08:11:21.706Z,8.40
2023-02-22T08:21:20.788Z,9.10
2023-02-22T08:31:20.168Z,9.90
2023-02-22T08:41:19.924Z,10.50
2023-02-22T08:51:18.912Z,10.90
2023-02-22T09:01:32.673Z,11.30
2023-02-22T09:11:22.715Z,11.70
2023-02-22T09:21:21.832Z,12.00
2023-02-22T09:31:21.263Z,12.30
2023-02-22T09:41:20.672Z,12.50
2023-02-22T09:51:20.250Z,12.80
2023-02-22T10:01:21.746Z,13.00
2023-02-22T10:11:20.728Z,13.20
2023-02-22T10:21:19.738Z,13.40
2023-02-22T10:31:18.898Z,13.60
2023-02-22T10:41:17.839Z,13.80
2023-02-22T10:51:16.971Z,13.90
2023-02-22T11:01:16.136Z,14.00
2023-02-22T11:11:16.066Z,14.10
2023-02-22T11:21:18.007Z,14.40
2023-02-22T11:31:18.190Z,14.60
2023-02-22T11:41:18.262Z,14.80
2023-02-22T11:51:17.946Z,15.10
2023-02-22T12:01:17.169Z,15.30
2023-02-22T12:11:17.794Z,15.80
2023-02-22T12:21:16.934Z,16.10
2023-02-22T12:31:16.063Z,16.00
2023-02-22T12:41:15.111Z,16.10
2023-02-22T12:51:15.007Z,16.30
2023-02-22T13:01:13.923Z,16.60
2023-02-22T13:11:14.442Z,16.90
2023-02-22T13:21:13.815Z,17.10
2023-02-22T13:31:12.903Z,17.10
2023-02-22T13:41:12.024Z,17.20
2023-02-22T13:51:10.995Z,17.20
2023-02-22T14:01:09.821Z,17.40
2023-02-22T14:11:10.737Z,17.70
2023-02-22T14:21:09.854Z,17.70
2023-02-22T14:31:09.335Z,17.90
2023-02-22T14:41:08.894Z,17.70
2023-02-22T14:51:20.210Z,17.70
2023-02-22T15:01:09.094Z,17.80
2023-02-22T15:11:07.848Z,17.90
2023-02-22T15:21:07.113Z,17.90
2023-02-22T15:31:05.729Z,17.50
2023-02-22T15:41:04.885Z,17.20
2023-02-22T15:51:06.218Z,16.80
2023-02-22T16:01:04.981Z,16.50
2023-02-22T16:11:03.911Z,16.10
2023-02-22T16:21:03.256Z,15.90
2023-02-22T16:31:01.981Z,15.70
2023-02-22T16:41:00.810Z,15.40
2023-02-22T16:51:00.018Z,15.10
2023-02-22T17:00:59.012Z,14.70
2023-02-22T17:10:57.946Z,14.40
2023-02-22T17:20:56.934Z,14.10
2023-02-22T17:30:58.429Z,13.90
2023-02-22T17:40:58.561Z,13.70
2023-02-22T17:50:58.231Z,13.60
2023-02-22T18:00:58.862Z,13.50
2023-02-22T18:10:58.469Z,13.30
2023-02-22T18:20:59.258Z,13.20
2023-02-22T18:30:59.102Z,13.20
2023-02-22T18:40:58.061Z,13.30
2023-02-22T18:50:56.927Z,13.20
2023-02-22T19:00:55.953Z,13.20
2023-02-22T19:10:55.062Z,13.20
2023-02-22T19:20:54.048Z,13.10
2023-02-22T19:30:53.133Z,13.00
2023-02-22T19:40:52.141Z,12.90
2023-02-22T19:50:52.865Z,12.80
2023-02-22T20:00:52.059Z,12.60
2023-02-22T20:10:51.041Z,12.40
2023-02-22T20:20:50.901Z,12.40
2023-02-22T20:30:51.094Z,12.40
2023-02-22T20:40:50.110Z,12.20
2023-02-22T20:50:49.150Z,12.10
2023-02-22T21:00:48.073Z,12.00
2023-02-22T21:10:46.986Z,12.00
2023-02-22T21:20:47.385Z,11.90
2023-02-22T21:30:46.694Z,11.90
2023-02-22T21:40:46.138Z,11.90
2023-02-22T21:50:45.138Z,11.90
2023-02-22T22:00:47.206Z,12.00
2023-02-22T22:10:47.010Z,12.00
2023-02-22T22:20:46.095Z,11.90
2023-02-22T22:30:45.267Z,11.90
2023-02-22T22:40:46.526Z,11.90
2023-02-22T22:50:46.047Z,11.90
2023-02-22T23:00:46.058Z,11.90
2023-02-22T23:10:46.319Z,11.70
2023-02-22T23:20:45.181Z,11.60
2023-02-22T23:30:44.165Z,11.70
2023-02-22T23:40:44.254Z,11.80
2023-02-22T23:50:43.525Z,11.80
